sensor_id;sensor_type;location;lat;lon;timestamp;pressure;altitude;pressure_sealevel;temperature;humidity
16821;BME280;8527;49.740;6.604;2022-09-20T00:00:26;100383.88;;;8.86;99.36
16821;BME280;8527;49.740;6.604;2022-09-20T00:05:25;100380.81;;;8.91;99.51
16821;BME280;8527;49.740;6.604;2022-09-20T00:10:27;100386.50;;;8.77;100.00
16821;BME280;8527;49.740;6.604;2022-09-20T00:15:29;100391.53;;;8.80;100.00
16821;BME280;8527;49.740;6.604;2022-09-20T00:20:30;100386.25;;;8.80;100.00
16821;BME280;8527;49.740;6.604;2022-09-20T00:25:29;100383.03;;;8.76;100.00
16821;BME280;8527;49.740;6.604;2022-09-20T00:30:31;100390.41;;;8.72;100.00
16821;BME280;8527;49.740;6.604;2022-09-20T00:35:30;100385.69;;;8.76;100.00
16821;BME280;8527;49.740;6.604;2022-09-20T00:40:31;100375.09;;;8.76;100.00
16821;BME280;8527;49.740;6.604;2022-09-20T00:45:32;100373.16;;;8.68;100.00
16821;BME280;8527;49.740;6.604;2022-09-20T00:50:34;100374.41;;;8.74;100.00
16821;BME280;8527;49.740;6.604;2022-09-20T00:55:37;100388.72;;;8.81;100.00
16821;BME280;8527;49.740;6.604;2022-09-20T01:00:40;100386.09;;;8.81;100.00
16821;BME280;8527;49.740;6.604;2022-09-20T01:05:41;100387.06;;;8.80;100.00
16821;BME280;8527;49.740;6.604;2022-09-20T01:10:41;100381.78;;;8.80;100.00
16821;BME280;8527;49.740;6.604;2022-09-20T01:15:49;100382.63;;;8.81;100.00
16821;BME280;8527;49.740;6.604;2022-09-20T01:20:49;100375.38;;;8.83;100.00
16821;BME280;8527;49.740;6.604;2022-09-20T01:26:06;100368.69;;;8.79;100.00
16821;BME280;8527;49.740;6.604;2022-09-20T01:31:16;100365.06;;;8.70;100.00
16821;BME280;8527;49.740;6.604;2022-09-20T01:36:25;100363.81;;;8.64;100.00
16821;BME280;8527;49.740;6.604;2022-09-20T01:41:28;100368.69;;;8.69;100.00
16821;BME280;8527;49.740;6.604;2022-09-20T01:46:38;100372.59;;;8.75;100.00
16821;BME280;8527;49.740;6.604;2022-09-20T02:08:19;100384.72;;;8.77;100.00
16821;BME280;8527;49.740;6.604;2022-09-20T02:13:29;100384.28;;;8.82;100.00
16821;BME280;8527;49.740;6.604;2022-09-20T02:18:51;100387.91;;;8.71;100.00
16821;BME280;8527;49.740;6.604;2022-09-20T02:24:02;100375.38;;;8.63;100.00
16821;BME280;8527;49.740;6.604;2022-09-20T02:29:16;100363.81;;;8.64;100.00
16821;BME280;8527;49.740;6.604;2022-09-20T02:34:48;100371.91;;;8.72;100.00
16821;BME280;8527;49.740;6.604;2022-09-20T02:39:58;100376.22;;;8.73;100.00
16821;BME280;8527;49.740;6.604;2022-09-20T02:45:08;100372.72;;;8.83;100.00
16821;BME280;8527;49.740;6.604;2022-09-20T02:50:21;100384.13;;;8.83;100.00
16821;BME280;8527;49.740;6.604;2022-09-20T02:55:29;100387.03;;;8.90;100.00
16821;BME280;8527;49.740;6.604;2022-09-20T03:00:38;100388.63;;;8.73;100.00
16821;BME280;8527;49.740;6.604;2022-09-20T03:05:50;100390.41;;;8.72;100.00
16821;BME280;8527;49.740;6.604;2022-09-20T03:10:53;100388.72;;;8.81;100.00
16821;BME280;8527;49.740;6.604;2022-09-20T03:16:01;100381.47;;;8.83;100.00
16821;BME280;8527;49.740;6.604;2022-09-20T03:21:20;100374.78;;;8.89;100.00
16821;BME280;8527;49.740;6.604;2022-09-20T03:26:31;100377.75;;;8.76;100.00
16821;BME280;8527;49.740;6.604;2022-09-20T03:31:51;100376.19;;;8.83;100.00
16821;BME280;8527;49.740;6.604;2022-09-20T03:37:05;100388.75;;;8.91;100.00
16821;BME280;8527;49.740;6.604;2022-09-20T03:42:14;100377.88;;;8.94;100.00
16821;BME280;8527;49.740;6.604;2022-09-20T03:47:29;100383.56;;;8.99;100.00
16821;BME280;8527;49.740;6.604;2022-09-20T03:53:05;100382.31;;;8.94;100.00
16821;BME280;8527;49.740;6.604;2022-09-20T03:58:22;100391.78;;;8.96;100.00
16821;BME280;8527;49.740;6.604;2022-09-20T04:03:35;100382.56;;;9.00;100.00
16821;BME280;8527;49.740;6.604;2022-09-20T04:08:55;100393.72;;;9.04;100.00
16821;BME280;8527;49.740;6.604;2022-09-20T04:14:03;100388.41;;;9.04;100.00
16821;BME280;8527;49.740;6.604;2022-09-20T04:19:16;100388.97;;;9.08;100.00
16821;BME280;8527;49.740;6.604;2022-09-20T04:24:33;100381.34;;;9.05;100.00
16821;BME280;8527;49.740;6.604;2022-09-20T04:29:46;100380.78;;;9.01;100.00
16821;BME280;8527;49.740;6.604;2022-09-20T04:35:04;100389.00;;;8.98;100.00
16821;BME280;8527;49.740;6.604;2022-09-20T04:40:46;100401.34;;;9.07;100.00
16821;BME280;8527;49.740;6.604;2022-09-20T04:46:20;100388.97;;;9.08;100.00
16821;BME280;8527;49.740;6.604;2022-09-20T04:57:39;100401.91;;;9.11;100.00
16821;BME280;8527;49.740;6.604;2022-09-20T05:08:42;100403.88;;;9.09;100.00
16821;BME280;8527;49.740;6.604;2022-09-20T05:14:04;100401.91;;;9.11;100.00
16821;BME280;8527;49.740;6.604;2022-09-20T05:19:22;100412.25;;;8.94;100.00
16821;BME280;8527;49.740;6.604;2022-09-20T05:24:45;100413.09;;;8.95;100.00
16821;BME280;8527;49.740;6.604;2022-09-20T05:29:56;100417.94;;;8.99;100.00
16821;BME280;8527;49.740;6.604;2022-09-20T05:35:11;100423.13;;;9.01;100.00
16821;BME280;8527;49.740;6.604;2022-09-20T05:40:19;100428.66;;;9.18;100.00
16821;BME280;8527;49.740;6.604;2022-09-20T05:50:51;100438.84;;;9.12;100.00
16821;BME280;8527;49.740;6.604;2022-09-20T05:56:04;100445.25;;;9.10;100.00
16821;BME280;8527;49.740;6.604;2022-09-20T06:01:15;100440.78;;;9.20;100.00
16821;BME280;8527;49.740;6.604;2022-09-20T06:06:24;100447.31;;;9.16;100.00
16821;BME280;8527;49.740;6.604;2022-09-20T06:11:45;100445.66;;;9.15;100.00
16821;BME280;8527;49.740;6.604;2022-09-20T06:16:54;100458.06;;;9.14;100.00
16821;BME280;8527;49.740;6.604;2022-09-20T06:22:07;100458.19;;;9.23;100.00
16821;BME280;8527;49.740;6.604;2022-09-20T06:27:12;100469.59;;;9.33;100.00
16821;BME280;8527;49.740;6.604;2022-09-20T06:32:18;100466.66;;;9.46;100.00
16821;BME280;8527;49.740;6.604;2022-09-20T06:37:28;100459.94;;;9.52;100.00
16821;BME280;8527;49.740;6.604;2022-09-20T06:42:43;100459.22;;;9.60;100.00
16821;BME280;8527;49.740;6.604;2022-09-20T06:47:44;100461.28;;;9.66;100.00
16821;BME280;8527;49.740;6.604;2022-09-20T06:52:43;100464.47;;;9.69;100.00
16821;BME280;8527;49.740;6.604;2022-09-20T06:57:42;100460.41;;;9.75;100.00
16821;BME280;8527;49.740;6.604;2022-09-20T07:02:48;100461.75;;;9.89;100.00
16821;BME280;8527;49.740;6.604;2022-09-20T07:07:55;100463.47;;;10.08;100.00
16821;BME280;8527;49.740;6.604;2022-09-20T07:12:55;100462.00;;;10.24;100.00
16821;BME280;8527;49.740;6.604;2022-09-20T07:17:57;100470.69;;;10.44;100.00
16821;BME280;8527;49.740;6.604;2022-09-20T07:22:56;100463.28;;;10.66;100.00
16821;BME280;8527;49.740;6.604;2022-09-20T07:27:55;100458.47;;;11.06;100.00
16821;BME280;8527;49.740;6.604;2022-09-20T07:32:53;100461.78;;;11.26;100.00
16821;BME280;8527;49.740;6.604;2022-09-20T07:37:57;100460.38;;;11.40;99.52
16821;BME280;8527;49.740;6.604;2022-09-20T07:42:56;100465.63;;;11.58;98.30
16821;BME280;8527;49.740;6.604;2022-09-20T07:47:58;100474.88;;;11.80;97.39
16821;BME280;8527;49.740;6.604;2022-09-20T07:53:06;100475.41;;;11.84;97.60
16821;BME280;8527;49.740;6.604;2022-09-20T07:58:08;100483.78;;;11.98;95.30
16821;BME280;8527;49.740;6.604;2022-09-20T08:03:08;100480.19;;;12.66;93.93
16821;BME280;8527;49.740;6.604;2022-09-20T08:08:09;100483.00;;;12.57;93.03
16821;BME280;8527;49.740;6.604;2022-09-20T08:13:08;100490.50;;;12.61;92.79
16821;BME280;8527;49.740;6.604;2022-09-20T08:18:19;100482.34;;;12.71;91.91
16821;BME280;8527;49.740;6.604;2022-09-20T08:23:24;100488.00;;;12.60;92.69
16821;BME280;8527;49.740;6.604;2022-09-20T08:28:29;100490.50;;;12.61;92.36
16821;BME280;8527;49.740;6.604;2022-09-20T08:33:36;100491.34;;;12.70;93.05
16821;BME280;8527;49.740;6.604;2022-09-20T08:38:40;100490.50;;;12.70;92.12
16821;BME280;8527;49.740;6.604;2022-09-20T08:43:45;100499.22;;;13.21;91.63
16821;BME280;8527;49.740;6.604;2022-09-20T08:48:46;100499.94;;;14.60;85.76
16821;BME280;8527;49.740;6.604;2022-09-20T08:53:52;100502.34;;;15.01;81.76
16821;BME280;8527;49.740;6.604;2022-09-20T08:58:51;100496.00;;;14.79;83.56
16821;BME280;8527;49.740;6.604;2022-09-20T09:03:52;100495.16;;;14.79;81.85
16821;BME280;8527;49.740;6.604;2022-09-20T09:08:58;100490.63;;;15.02;80.89
16821;BME280;8527;49.740;6.604;2022-09-20T09:13:59;100488.78;;;15.26;79.81
16821;BME280;8527;49.740;6.604;2022-09-20T09:19:28;100488.50;;;15.21;79.28
16821;BME280;8527;49.740;6.604;2022-09-20T09:24:29;100482.84;;;15.16;77.57
16821;BME280;8527;49.740;6.604;2022-09-20T09:29:28;100479.75;;;15.27;77.71
16821;BME280;8527;49.740;6.604;2022-09-20T09:34:29;100483.19;;;15.36;76.92
16821;BME280;8527;49.740;6.604;2022-09-20T09:39:39;100474.91;;;15.46;77.27
16821;BME280;8527;49.740;6.604;2022-09-20T09:44:38;100486.03;;;15.35;77.05
16821;BME280;8527;49.740;6.604;2022-09-20T09:49:54;100471.69;;;15.51;75.07
16821;BME280;8527;49.740;6.604;2022-09-20T09:55:04;100472.59;;;15.58;75.77
16821;BME280;8527;49.740;6.604;2022-09-20T10:00:10;100468.59;;;15.39;76.98
16821;BME280;8527;49.740;6.604;2022-09-20T10:05:15;100481.88;;;15.17;77.08
16821;BME280;8527;49.740;6.604;2022-09-20T10:10:28;100489.88;;;14.94;78.02
16821;BME280;8527;49.740;6.604;2022-09-20T10:15:36;100497.94;;;14.30;87.08
16821;BME280;8527;49.740;6.604;2022-09-20T10:20:49;100492.81;;;14.20;90.57
16821;BME280;8527;49.740;6.604;2022-09-20T10:25:58;100495.84;;;14.17;88.98
16821;BME280;8527;49.740;6.604;2022-09-20T10:31:11;100491.03;;;14.44;93.45
16821;BME280;8527;49.740;6.604;2022-09-20T10:36:21;100488.84;;;14.80;92.95
16821;BME280;8527;49.740;6.604;2022-09-20T10:41:45;100477.34;;;15.17;90.29
16821;BME280;8527;49.740;6.604;2022-09-20T10:47:14;100477.38;;;15.09;88.98
16821;BME280;8527;49.740;6.604;2022-09-20T10:52:33;100481.16;;;15.38;88.59
16821;BME280;8527;49.740;6.604;2022-09-20T10:58:01;100481.22;;;15.30;88.88
16821;BME280;8527;49.740;6.604;2022-09-20T11:03:21;100474.97;;;15.38;87.32
16821;BME280;8527;49.740;6.604;2022-09-20T11:08:34;100468.69;;;15.45;86.87
16821;BME280;8527;49.740;6.604;2022-09-20T11:13:40;100467.97;;;15.37;85.54
16821;BME280;8527;49.740;6.604;2022-09-20T11:18:45;100476.38;;;15.49;84.65
16821;BME280;8527;49.740;6.604;2022-09-20T11:24:00;100478.41;;;15.77;82.33
16821;BME280;8527;49.740;6.604;2022-09-20T11:29:17;100474.72;;;16.23;79.31
16821;BME280;8527;49.740;6.604;2022-09-20T11:34:27;100485.09;;;15.96;76.31
16821;BME280;8527;49.740;6.604;2022-09-20T11:39:29;100480.25;;;15.46;75.81
16821;BME280;8527;49.740;6.604;2022-09-20T11:44:40;100487.19;;;15.55;77.03
16821;BME280;8527;49.740;6.604;2022-09-20T11:49:48;100480.13;;;15.54;78.37
16821;BME280;8527;49.740;6.604;2022-09-20T11:55:06;100481.00;;;15.55;81.01
16821;BME280;8527;49.740;6.604;2022-09-20T12:00:16;100477.56;;;15.61;80.98
16821;BME280;8527;49.740;6.604;2022-09-20T12:05:29;100473.72;;;15.49;78.55
16821;BME280;8527;49.740;6.604;2022-09-20T12:10:31;100474.75;;;15.93;80.90
16821;BME280;8527;49.740;6.604;2022-09-20T12:15:39;100469.75;;;16.41;78.52
16821;BME280;8527;49.740;6.604;2022-09-20T12:21:05;100461.47;;;16.80;78.10
16821;BME280;8527;49.740;6.604;2022-09-20T12:26:06;100457.72;;;17.18;72.06
16821;BME280;8527;49.740;6.604;2022-09-20T12:37:16;100454.09;;;16.82;72.21
16821;BME280;8527;49.740;6.604;2022-09-20T12:42:27;100457.53;;;16.76;72.46
16821;BME280;8527;49.740;6.604;2022-09-20T12:47:28;100455.19;;;16.66;69.20
16821;BME280;8527;49.740;6.604;2022-09-20T12:52:51;100452.44;;;16.59;70.41
16821;BME280;8527;49.740;6.604;2022-09-20T12:57:56;100451.13;;;16.55;66.54
16821;BME280;8527;49.740;6.604;2022-09-20T13:02:59;100445.78;;;16.77;68.64
16821;BME280;8527;49.740;6.604;2022-09-20T13:08:01;100449.28;;;16.99;67.21
16821;BME280;8527;49.740;6.604;2022-09-20T13:13:13;100447.53;;;17.35;62.58
16821;BME280;8527;49.740;6.604;2022-09-20T13:18:13;100444.34;;;17.24;63.75
16821;BME280;8527;49.740;6.604;2022-09-20T13:23:20;100439.16;;;16.94;63.97
16821;BME280;8527;49.740;6.604;2022-09-20T13:28:31;100438.03;;;16.82;63.41
16821;BME280;8527;49.740;6.604;2022-09-20T13:33:33;100438.31;;;16.94;65.09
16821;BME280;8527;49.740;6.604;2022-09-20T13:38:35;100448.41;;;17.13;65.80
16821;BME280;8527;49.740;6.604;2022-09-20T13:43:39;100440.59;;;17.19;65.58
16821;BME280;8527;49.740;6.604;2022-09-20T13:48:39;100444.22;;;17.33;64.10
16821;BME280;8527;49.740;6.604;2022-09-20T13:53:40;100444.69;;;17.14;64.61
16821;BME280;8527;49.740;6.604;2022-09-20T13:58:39;100442.16;;;17.35;63.93
16821;BME280;8527;49.740;6.604;2022-09-20T14:03:38;100449.13;;;17.00;65.17
16821;BME280;8527;49.740;6.604;2022-09-20T14:08:42;100444.06;;;16.25;69.07
16821;BME280;8527;49.740;6.604;2022-09-20T14:13:43;100438.72;;;16.10;69.44
16821;BME280;8527;49.740;6.604;2022-09-20T14:18:45;100440.31;;;15.89;69.03
16821;BME280;8527;49.740;6.604;2022-09-20T14:23:52;100431.16;;;16.14;66.43
16821;BME280;8527;49.740;6.604;2022-09-20T14:28:52;100433.59;;;16.30;67.32
16821;BME280;8527;49.740;6.604;2022-09-20T14:33:58;100426.16;;;16.48;66.96
16821;BME280;8527;49.740;6.604;2022-09-20T14:39:02;100428.38;;;16.66;66.41
16821;BME280;8527;49.740;6.604;2022-09-20T14:44:02;100418.44;;;16.59;66.12
16821;BME280;8527;49.740;6.604;2022-09-20T14:49:30;100418.63;;;16.58;67.04
16821;BME280;8527;49.740;6.604;2022-09-20T14:54:32;100418.75;;;16.71;66.35
16821;BME280;8527;49.740;6.604;2022-09-20T14:59:35;100423.03;;;16.66;65.54
16821;BME280;8527;49.740;6.604;2022-09-20T15:04:34;100423.44;;;16.26;66.61
16821;BME280;8527;49.740;6.604;2022-09-20T15:09:36;100425.81;;;15.84;67.46
16821;BME280;8527;49.740;6.604;2022-09-20T15:14:38;100438.66;;;15.58;69.79
16821;BME280;8527;49.740;6.604;2022-09-20T15:19:37;100431.09;;;15.17;71.76
16821;BME280;8527;49.740;6.604;2022-09-20T15:24:38;100421.56;;;15.29;71.45
16821;BME280;8527;49.740;6.604;2022-09-20T15:29:37;100408.94;;;15.53;70.49
16821;BME280;8527;49.740;6.604;2022-09-20T15:34:41;100417.19;;;15.52;69.77
16821;BME280;8527;49.740;6.604;2022-09-20T15:39:47;100421.22;;;15.63;72.17
16821;BME280;8527;49.740;6.604;2022-09-20T15:44:49;100422.31;;;15.53;70.74
16821;BME280;8527;49.740;6.604;2022-09-20T15:49:50;100431.38;;;15.52;72.08
16821;BME280;8527;49.740;6.604;2022-09-20T15:54:51;100434.31;;;15.72;72.85
16821;BME280;8527;49.740;6.604;2022-09-20T15:59:57;100429.72;;;15.81;72.33
16821;BME280;8527;49.740;6.604;2022-09-20T16:04:59;100429.78;;;15.58;72.20
16821;BME280;8527;49.740;6.604;2022-09-20T16:10:02;100435.25;;;15.50;73.99
16821;BME280;8527;49.740;6.604;2022-09-20T16:15:05;100439.84;;;14.87;76.73
16821;BME280;8527;49.740;6.604;2022-09-20T16:20:04;100450.81;;;14.93;73.61
16821;BME280;8527;49.740;6.604;2022-09-20T16:25:06;100452.59;;;15.00;73.30
16821;BME280;8527;49.740;6.604;2022-09-20T16:30:09;100449.22;;;15.07;71.65
16821;BME280;8527;49.740;6.604;2022-09-20T16:35:08;100469.38;;;15.09;72.61
16821;BME280;8527;49.740;6.604;2022-09-20T16:40:09;100477.38;;;15.09;75.33
16821;BME280;8527;49.740;6.604;2022-09-20T16:45:10;100476.13;;;14.82;74.01
16821;BME280;8527;49.740;6.604;2022-09-20T16:50:13;100478.69;;;14.67;74.94
16821;BME280;8527;49.740;6.604;2022-09-20T16:55:16;100486.75;;;14.58;75.77
16821;BME280;8527;49.740;6.604;2022-09-20T17:00:15;100489.75;;;14.63;75.82
16821;BME280;8527;49.740;6.604;2022-09-20T17:05:15;100484.47;;;14.47;73.98
16821;BME280;8527;49.740;6.604;2022-09-20T17:10:16;100485.16;;;14.49;76.02
16821;BME280;8527;49.740;6.604;2022-09-20T17:15:15;100485.75;;;14.59;75.04
16821;BME280;8527;49.740;6.604;2022-09-20T17:20:13;100491.69;;;14.46;73.48
16821;BME280;8527;49.740;6.604;2022-09-20T17:25:12;100493.50;;;14.46;73.77
16821;BME280;8527;49.740;6.604;2022-09-20T17:30:13;100495.88;;;14.41;75.36
16821;BME280;8527;49.740;6.604;2022-09-20T17:35:12;100498.91;;;14.38;75.94
16821;BME280;8527;49.740;6.604;2022-09-20T17:40:10;100489.91;;;14.30;76.28
16821;BME280;8527;49.740;6.604;2022-09-20T17:45:09;100499.81;;;14.21;76.68
16821;BME280;8527;49.740;6.604;2022-09-20T17:50:14;100507.84;;;14.13;76.15
16821;BME280;8527;49.740;6.604;2022-09-20T17:55:12;100505.53;;;14.02;77.88
16821;BME280;8527;49.740;6.604;2022-09-20T18:00:12;100503.44;;;13.81;80.07
16821;BME280;8527;49.740;6.604;2022-09-20T18:05:13;100508.84;;;13.64;82.20
16821;BME280;8527;49.740;6.604;2022-09-20T18:10:12;100521.50;;;13.54;81.20
16821;BME280;8527;49.740;6.604;2022-09-20T18:15:13;100529.19;;;13.48;82.00
16821;BME280;8527;49.740;6.604;2022-09-20T18:20:14;100529.66;;;13.52;81.37
16821;BME280;8527;49.740;6.604;2022-09-20T18:25:12;100529.34;;;13.47;83.66
16821;BME280;8527;49.740;6.604;2022-09-20T18:30:11;100533.66;;;13.40;84.42
16821;BME280;8527;49.740;6.604;2022-09-20T18:35:09;100544.00;;;13.34;83.29
16821;BME280;8527;49.740;6.604;2022-09-20T18:40:11;100546.97;;;13.40;84.12
16821;BME280;8527;49.740;6.604;2022-09-20T18:45:10;100545.16;;;13.40;83.90
16821;BME280;8527;49.740;6.604;2022-09-20T18:50:11;100540.84;;;13.22;84.18
16821;BME280;8527;49.740;6.604;2022-09-20T18:55:12;100545.31;;;13.22;85.28
16821;BME280;8527;49.740;6.604;2022-09-20T19:00:12;100553.16;;;13.15;86.33
16821;BME280;8527;49.740;6.604;2022-09-20T19:05:16;100552.28;;;12.98;85.54
16821;BME280;8527;49.740;6.604;2022-09-20T19:10:26;100556.09;;;12.95;84.71
16821;BME280;8527;49.740;6.604;2022-09-20T19:15:42;100558.78;;;12.87;86.04
16821;BME280;8527;49.740;6.604;2022-09-20T19:20:46;100559.56;;;12.71;85.23
16821;BME280;8527;49.740;6.604;2022-09-20T19:25:48;100566.88;;;12.69;86.55
16821;BME280;8527;49.740;6.604;2022-09-20T19:30:50;100579.53;;;12.67;87.99
16821;BME280;8527;49.740;6.604;2022-09-20T19:35:50;100597.59;;;12.55;88.75
16821;BME280;8527;49.740;6.604;2022-09-20T19:41:00;100595.94;;;12.46;88.73
16821;BME280;8527;49.740;6.604;2022-09-20T19:46:13;100596.50;;;12.31;90.23
16821;BME280;8527;49.740;6.604;2022-09-20T19:51:16;100602.47;;;12.25;88.82
16821;BME280;8527;49.740;6.604;2022-09-20T19:56:22;100606.91;;;12.16;89.73
16821;BME280;8527;49.740;6.604;2022-09-20T20:01:23;100601.22;;;12.11;89.14
16821;BME280;8527;49.740;6.604;2022-09-20T20:06:26;100603.38;;;12.07;89.49
16821;BME280;8527;49.740;6.604;2022-09-20T20:11:35;100607.72;;;12.08;89.09
16821;BME280;8527;49.740;6.604;2022-09-20T20:16:50;100615.69;;;11.90;90.59
16821;BME280;8527;49.740;6.604;2022-09-20T20:21:55;100613.53;;;11.94;90.56
16821;BME280;8527;49.740;6.604;2022-09-20T20:26:57;100622.47;;;11.85;91.52
16821;BME280;8527;49.740;6.604;2022-09-20T20:31:56;100624.81;;;11.88;90.52
16821;BME280;8527;49.740;6.604;2022-09-20T20:36:54;100630.47;;;11.85;91.30
16821;BME280;8527;49.740;6.604;2022-09-20T20:41:57;100635.69;;;11.76;90.72
16821;BME280;8527;49.740;6.604;2022-09-20T20:46:57;100649.09;;;11.66;92.06
16821;BME280;8527;49.740;6.604;2022-09-20T20:51:56;100636.34;;;11.52;91.25
16821;BME280;8527;49.740;6.604;2022-09-20T20:57:01;100640.34;;;11.56;91.69
16821;BME280;8527;49.740;6.604;2022-09-20T21:02:00;100640.44;;;11.46;91.75
16821;BME280;8527;49.740;6.604;2022-09-20T21:06:58;100645.09;;;11.44;93.43
16821;BME280;8527;49.740;6.604;2022-09-20T21:11:57;100660.09;;;11.35;91.17
16821;BME280;8527;49.740;6.604;2022-09-20T21:16:59;100650.91;;;11.30;92.80
16821;BME280;8527;49.740;6.604;2022-09-20T21:21:58;100653.75;;;11.18;93.74
16821;BME280;8527;49.740;6.604;2022-09-20T21:27:06;100658.25;;;11.18;93.86
16821;BME280;8527;49.740;6.604;2022-09-20T21:32:13;100652.56;;;11.13;94.14
16821;BME280;8527;49.740;6.604;2022-09-20T21:37:11;100658.47;;;11.06;93.90
16821;BME280;8527;49.740;6.604;2022-09-20T21:42:10;100664.38;;;11.00;93.78
16821;BME280;8527;49.740;6.604;2022-09-20T21:47:16;100663.59;;;10.90;95.47
16821;BME280;8527;49.740;6.604;2022-09-20T21:52:20;100665.50;;;10.69;95.32
16821;BME280;8527;49.740;6.604;2022-09-20T21:57:18;100662.69;;;10.71;95.75
16821;BME280;8527;49.740;6.604;2022-09-20T22:02:19;100663.59;;;10.62;95.54
16821;BME280;8527;49.740;6.604;2022-09-20T22:07:18;100658.31;;;10.52;96.77
16821;BME280;8527;49.740;6.604;2022-09-20T22:12:21;100658.75;;;10.37;96.12
16821;BME280;8527;49.740;6.604;2022-09-20T22:17:31;100666.31;;;10.22;96.22
16821;BME280;8527;49.740;6.604;2022-09-20T22:22:29;100666.47;;;10.21;95.89
16821;BME280;8527;49.740;6.604;2022-09-20T22:27:28;100670.28;;;10.08;96.24
16821;BME280;8527;49.740;6.604;2022-09-20T22:32:32;100670.56;;;9.95;96.98
16821;BME280;8527;49.740;6.604;2022-09-20T22:37:33;100668.06;;;9.84;94.88
16821;BME280;8527;49.740;6.604;2022-09-20T22:42:32;100670.72;;;9.84;96.62
16821;BME280;8527;49.740;6.604;2022-09-20T22:47:33;100666.69;;;9.80;96.55
16821;BME280;8527;49.740;6.604;2022-09-20T22:52:32;100667.94;;;9.66;96.39
16821;BME280;8527;49.740;6.604;2022-09-20T22:57:33;100663.06;;;9.61;95.33
16821;BME280;8527;49.740;6.604;2022-09-20T23:02:37;100666.94;;;9.67;97.30
16821;BME280;8527;49.740;6.604;2022-09-20T23:07:38;100673.38;;;9.54;97.26
16821;BME280;8527;49.740;6.604;2022-09-20T23:12:38;100677.97;;;9.52;96.61
16821;BME280;8527;49.740;6.604;2022-09-20T23:17:39;100674.63;;;9.40;97.22
16821;BME280;8527;49.740;6.604;2022-09-20T23:22:49;100676.41;;;9.40;97.30
16821;BME280;8527;49.740;6.604;2022-09-20T23:27:47;100676.13;;;9.33;97.22
16821;BME280;8527;49.740;6.604;2022-09-20T23:32:49;100663.28;;;9.28;96.71
16821;BME280;8527;49.740;6.604;2022-09-20T23:37:47;100671.41;;;9.27;97.08
16821;BME280;8527;49.740;6.604;2022-09-20T23:42:46;100676.81;;;9.25;97.09
16821;BME280;8527;49.740;6.604;2022-09-20T23:47:50;100672.63;;;9.13;98.21
16821;BME280;8527;49.740;6.604;2022-09-20T23:52:51;100682.91;;;9.06;98.27
16821;BME280;8527;49.740;6.604;2022-09-20T23:57:53;100675.38;;;9.01;97.82
